createdAt,value
2019-03-08T00:00:36.716Z,93.59
2019-03-08T00:03:06.316Z,93.27
2019-03-08T00:05:34.998Z,93.12
2019-03-08T00:08:03.610Z,93.84
2019-03-08T00:10:32.391Z,93.84
2019-03-08T00:13:01.067Z,93.73
2019-03-08T00:15:29.800Z,93.51
2019-03-08T00:17:58.638Z,93.87
2019-03-08T00:20:27.381Z,94.36
2019-03-08T00:22:56.071Z,94.36
2019-03-08T00:25:24.726Z,94.21
2019-03-08T00:27:53.594Z,93.80
2019-03-08T00:30:22.296Z,93.38
2019-03-08T00:32:51.024Z,93.14
2019-03-08T00:35:19.739Z,92.50
2019-03-08T00:37:48.340Z,92.23
2019-03-08T00:40:17.031Z,92.00
2019-03-08T00:42:45.725Z,91.71
2019-03-08T00:45:18.758Z,91.20
2019-03-08T00:47:47.446Z,90.92
2019-03-08T00:50:16.093Z,90.58
2019-03-08T00:52:44.804Z,90.12
2019-03-08T00:55:15.136Z,90.43
2019-03-08T00:57:43.783Z,90.67
2019-03-08T01:00:21.381Z,89.47
2019-03-08T01:02:50.100Z,89.57
2019-03-08T01:05:19.276Z,89.83
2019-03-08T01:07:47.990Z,89.97
2019-03-08T01:10:19.637Z,89.65
2019-03-08T01:12:48.609Z,89.14
2019-03-08T01:15:18.915Z,88.83
2019-03-08T01:17:47.700Z,89.25
2019-03-08T01:20:18.705Z,89.43
2019-03-08T01:22:47.398Z,90.38
2019-03-08T01:25:16.708Z,91.17
2019-03-08T01:28:00.330Z,91.93
2019-03-08T01:30:29.338Z,92.55
2019-03-08T01:32:57.988Z,92.70
2019-03-08T01:35:26.826Z,92.60
2019-03-08T01:37:55.613Z,92.80
2019-03-08T01:40:24.436Z,92.77
2019-03-08T01:42:53.058Z,92.09
2019-03-08T01:45:21.762Z,91.90
2019-03-08T01:47:50.505Z,91.85
2019-03-08T01:50:19.246Z,91.77
2019-03-08T01:52:47.859Z,91.70
2019-03-08T01:55:16.538Z,91.84
2019-03-08T01:57:45.284Z,92.20
2019-03-08T02:00:17.065Z,92.15
2019-03-08T02:02:45.980Z,92.15
2019-03-08T02:05:15.093Z,92.52
2019-03-08T02:07:43.820Z,92.95
2019-03-08T02:10:15.315Z,93.56
2019-03-08T02:12:44.607Z,93.67
2019-03-08T02:15:19.282Z,93.07
2019-03-08T02:17:48.241Z,93.37
2019-03-08T02:20:24.128Z,93.27
2019-03-08T02:22:52.866Z,93.24
2019-03-08T02:25:21.698Z,92.98
2019-03-08T02:27:50.454Z,92.91
2019-03-08T02:30:19.337Z,92.24
2019-03-08T02:32:47.998Z,92.84
2019-03-08T02:35:21.272Z,92.14
2019-03-08T02:37:50.152Z,92.24
2019-03-08T02:40:32.563Z,92.69
2019-03-08T02:43:02.197Z,93.18
2019-03-08T02:45:30.994Z,93.35
2019-03-08T02:47:59.632Z,93.15
2019-03-08T02:50:28.540Z,93.40
2019-03-08T02:52:57.277Z,93.78
2019-03-08T02:55:25.942Z,93.92
2019-03-08T02:57:54.614Z,93.57
2019-03-08T03:00:23.259Z,93.76
2019-03-08T03:02:52.014Z,93.88
2019-03-08T03:05:20.727Z,94.24
2019-03-08T03:07:49.369Z,94.18
2019-03-08T03:10:18.116Z,94.20
2019-03-08T03:12:46.752Z,94.53
2019-03-08T03:15:16.279Z,94.84
2019-03-08T03:17:44.909Z,94.54
2019-03-08T03:20:15.523Z,94.72
2019-03-08T03:22:44.261Z,94.71
2019-03-08T03:25:15.613Z,94.30
2019-03-08T03:27:44.248Z,94.66
2019-03-08T03:30:18.816Z,94.46
2019-03-08T03:32:47.543Z,94.39
2019-03-08T03:35:16.221Z,94.28
2019-03-08T03:37:44.828Z,94.23
2019-03-08T03:40:18.882Z,94.38
2019-03-08T03:42:47.600Z,94.51
2019-03-08T03:45:21.790Z,94.58
2019-03-08T03:47:50.510Z,94.76
2019-03-08T03:50:19.186Z,94.92
2019-03-08T03:52:47.830Z,94.95
2019-03-08T03:55:18.060Z,94.81
2019-03-08T03:57:46.917Z,94.82
2019-03-08T04:00:21.206Z,95.22
2019-03-08T04:02:49.887Z,95.74
2019-03-08T04:05:18.783Z,95.96
2019-03-08T04:07:47.504Z,96.08
2019-03-08T04:10:17.878Z,95.97
2019-03-08T04:12:46.737Z,95.44
2019-03-08T04:15:18.172Z,94.80
2019-03-08T04:17:47.257Z,94.59
2019-03-08T04:20:18.096Z,93.96
2019-03-08T04:22:46.826Z,93.85
2019-03-08T04:25:16.785Z,93.54
2019-03-08T04:27:45.500Z,93.17
2019-03-08T04:30:19.096Z,92.91
2019-03-08T04:32:47.938Z,92.63
2019-03-08T04:35:16.554Z,92.37
2019-03-08T04:37:45.332Z,92.47
2019-03-08T04:40:15.476Z,91.68
2019-03-08T04:42:44.174Z,92.47
2019-03-08T04:45:15.020Z,93.22
2019-03-08T04:47:43.894Z,93.44
2019-03-08T04:50:16.903Z,93.13
2019-03-08T04:52:45.588Z,93.51
2019-03-08T04:55:19.304Z,93.71
2019-03-08T04:57:48.283Z,93.80
2019-03-08T05:00:18.516Z,93.95
2019-03-08T05:02:47.137Z,94.08
2019-03-08T05:05:15.898Z,94.35
2019-03-08T05:07:44.793Z,94.39
2019-03-08T05:10:16.218Z,94.55
2019-03-08T05:12:44.861Z,94.70
2019-03-08T05:15:14.295Z,94.80
2019-03-08T05:17:43.034Z,95.19
2019-03-08T05:20:11.847Z,95.55
2019-03-08T05:22:40.614Z,95.70
2019-03-08T05:25:14.418Z,95.07
2019-03-08T05:27:43.127Z,95.13
2019-03-08T05:30:14.287Z,94.86
2019-03-08T05:32:42.933Z,94.08
2019-03-08T05:35:13.407Z,94.44
2019-03-08T05:37:42.029Z,94.97
2019-03-08T05:40:13.905Z,95.10
2019-03-08T05:42:42.862Z,95.14
2019-03-08T05:45:15.473Z,95.34
2019-03-08T05:47:44.340Z,95.30
2019-03-08T05:50:13.265Z,95.34
2019-03-08T05:52:42.919Z,94.85
2019-03-08T05:55:12.543Z,94.69
2019-03-08T05:57:41.469Z,94.48
2019-03-08T06:00:14.476Z,94.22
2019-03-08T06:02:44.029Z,94.13
2019-03-08T06:05:12.865Z,94.25
2019-03-08T06:07:41.803Z,94.11
2019-03-08T06:10:33.827Z,94.32
2019-03-08T06:13:13.520Z,93.55
2019-03-08T06:16:05.029Z,90.01
2019-03-08T06:18:33.849Z,91.10
2019-03-08T06:21:02.711Z,92.44
2019-03-08T06:23:31.448Z,93.36
2019-03-08T06:26:00.442Z,94.32
2019-03-08T06:28:29.206Z,94.73
2019-03-08T06:30:57.794Z,94.61
2019-03-08T06:33:26.655Z,95.07
2019-03-08T06:35:55.329Z,95.12
2019-03-08T06:38:23.955Z,94.59
2019-03-08T06:40:52.850Z,94.35
2019-03-08T06:43:21.479Z,93.96
2019-03-08T06:45:50.136Z,93.69
2019-03-08T06:48:18.871Z,93.31
2019-03-08T06:50:47.567Z,93.12
2019-03-08T06:53:16.372Z,93.42
2019-03-08T06:55:45.439Z,93.14
2019-03-08T06:58:15.797Z,92.38
2019-03-08T07:00:46.335Z,92.13
2019-03-08T07:03:15.317Z,91.76
2019-03-08T07:05:44.123Z,91.63
2019-03-08T07:08:13.661Z,91.05
2019-03-08T07:10:42.840Z,90.61
2019-03-08T07:13:11.793Z,90.51
2019-03-08T07:15:40.546Z,90.15
2019-03-08T07:18:12.846Z,89.86
2019-03-08T07:20:54.730Z,90.02
2019-03-08T07:23:28.357Z,89.71
2019-03-08T07:26:08.612Z,88.56
2019-03-08T07:28:55.140Z,89.55
2019-03-08T07:31:31.550Z,89.46
2019-03-08T07:34:13.490Z,87.73
2019-03-08T07:36:58.965Z,87.04
2019-03-08T07:39:38.425Z,86.83
2019-03-08T07:42:08.751Z,86.60
2019-03-08T07:44:42.267Z,86.32
2019-03-08T07:47:28.894Z,85.61
2019-03-08T07:49:59.205Z,85.00
2019-03-08T07:52:29.628Z,84.02
2019-03-08T07:54:59.929Z,84.75
2019-03-08T07:57:45.283Z,84.49
2019-03-08T08:00:32.805Z,84.43
2019-03-08T08:03:03.982Z,84.38
2019-03-08T08:05:47.327Z,84.86
2019-03-08T08:08:17.674Z,85.40
2019-03-08T08:10:47.973Z,85.14
2019-03-08T08:13:21.460Z,85.45
2019-03-08T08:16:03.946Z,85.06
2019-03-08T08:18:40.193Z,85.24
2019-03-08T08:21:26.936Z,85.17
2019-03-08T08:23:57.300Z,84.34
2019-03-08T08:26:33.407Z,83.36
2019-03-08T08:29:18.753Z,83.03
2019-03-08T08:31:49.322Z,82.52
2019-03-08T08:34:25.572Z,83.14
2019-03-08T08:36:58.973Z,83.74
2019-03-08T08:39:35.206Z,84.34
2019-03-08T08:42:08.874Z,83.61
2019-03-08T08:44:42.075Z,83.11
2019-03-08T08:47:15.184Z,82.99
2019-03-08T08:49:55.749Z,84.71
2019-03-08T08:52:26.770Z,86.04
2019-03-08T08:55:00.048Z,85.46
2019-03-08T08:57:33.412Z,85.41
2019-03-08T09:00:03.813Z,85.35
2019-03-08T09:02:34.206Z,84.80
2019-03-08T09:05:10.282Z,84.40
2019-03-08T09:07:43.369Z,85.02
2019-03-08T09:10:13.646Z,85.75
2019-03-08T09:12:58.950Z,85.14
2019-03-08T09:15:35.331Z,84.91
2019-03-08T09:18:08.356Z,84.34
2019-03-08T09:20:38.586Z,83.16
2019-03-08T09:23:08.989Z,83.13
2019-03-08T09:25:39.249Z,82.21
2019-03-08T09:28:09.568Z,82.34
2019-03-08T09:30:52.083Z,83.42
2019-03-08T09:33:28.344Z,83.10
2019-03-08T09:35:58.664Z,82.70
2019-03-08T09:38:44.664Z,82.91
2019-03-08T09:41:20.802Z,81.72
2019-03-08T09:43:57.471Z,80.54
2019-03-08T09:46:42.710Z,79.96
2019-03-08T09:49:13.003Z,79.59
2019-03-08T09:51:43.360Z,78.57
2019-03-08T09:54:13.624Z,77.52
2019-03-08T09:56:43.903Z,77.34
2019-03-08T09:59:17.127Z,76.43
2019-03-08T10:01:56.555Z,73.82
2019-03-08T10:04:27.144Z,73.91
2019-03-08T10:07:03.197Z,72.44
2019-03-08T10:09:49.904Z,71.54
2019-03-08T10:12:22.989Z,71.42
2019-03-08T10:14:59.353Z,72.20
2019-03-08T10:17:41.631Z,72.59
2019-03-08T10:20:11.954Z,73.42
2019-03-08T10:22:42.522Z,72.86
2019-03-08T10:25:24.775Z,73.13
2019-03-08T10:28:04.158Z,74.19
2019-03-08T10:30:34.409Z,75.70
2019-03-08T10:33:14.363Z,74.85
2019-03-08T10:35:48.471Z,75.65
2019-03-08T10:38:22.852Z,76.52
2019-03-08T10:40:59.567Z,74.86
2019-03-08T10:43:29.811Z,73.61
2019-03-08T10:46:15.758Z,72.00
2019-03-08T10:48:53.274Z,71.98
2019-03-08T10:51:23.531Z,70.97
2019-03-08T10:54:07.194Z,70.51
2019-03-08T10:56:37.485Z,68.05
2019-03-08T10:59:07.766Z,66.16
2019-03-08T11:01:47.179Z,66.72
2019-03-08T11:04:18.026Z,65.31
2019-03-08T11:06:54.122Z,62.95
2019-03-08T11:09:24.401Z,62.42
2019-03-08T11:12:03.268Z,61.96
2019-03-08T11:14:49.917Z,61.02
2019-03-08T11:17:20.240Z,60.24
2019-03-08T11:19:50.622Z,58.25
2019-03-08T11:22:39.015Z,57.40
2019-03-08T11:25:13.789Z,56.99
2019-03-08T11:28:02.234Z,54.24
2019-03-08T11:30:53.892Z,55.58
2019-03-08T11:33:20.595Z,57.40
2019-03-08T11:35:51.032Z,56.79
2019-03-08T11:38:27.354Z,55.23
2019-03-08T11:41:00.477Z,55.26
2019-03-08T11:43:30.920Z,56.26
2019-03-08T11:46:01.227Z,54.68
2019-03-08T11:48:31.504Z,54.96
2019-03-08T11:51:07.938Z,52.96
2019-03-08T11:53:56.463Z,55.45
2019-03-08T11:56:41.871Z,55.30
2019-03-08T11:59:12.420Z,56.29
2019-03-08T12:01:48.792Z,57.14
2019-03-08T12:04:37.069Z,57.74
2019-03-08T12:07:13.319Z,57.79
2019-03-08T12:09:46.670Z,57.54
2019-03-08T12:12:19.722Z,58.30
2019-03-08T12:14:56.033Z,58.05
2019-03-08T12:17:44.482Z,56.77
2019-03-08T12:20:14.899Z,55.74
2019-03-08T12:23:01.432Z,57.48
2019-03-08T12:25:34.789Z,56.92
2019-03-08T12:28:21.496Z,58.83
2019-03-08T12:30:54.755Z,58.48
2019-03-08T12:33:25.058Z,57.38
2019-03-08T12:35:55.299Z,54.77
2019-03-08T12:38:34.421Z,55.97
2019-03-08T12:41:04.731Z,55.02
2019-03-08T12:43:53.370Z,56.06
2019-03-08T12:46:23.658Z,57.09
2019-03-08T12:48:54.215Z,56.11
2019-03-08T12:51:24.519Z,55.57
2019-03-08T12:53:54.834Z,56.25
2019-03-08T12:56:25.157Z,57.52
2019-03-08T12:59:07.478Z,55.88
2019-03-08T13:01:37.907Z,55.98
2019-03-08T13:04:11.374Z,56.25
2019-03-08T13:06:41.720Z,57.23
2019-03-08T13:09:14.471Z,57.80
2019-03-08T13:11:43.256Z,57.33
2019-03-08T13:14:12.168Z,55.07
2019-03-08T13:16:40.924Z,53.84
2019-03-08T13:19:09.803Z,54.64
2019-03-08T13:21:38.730Z,54.24
2019-03-08T13:24:07.575Z,53.72
2019-03-08T13:26:36.319Z,57.59
2019-03-08T13:29:05.091Z,56.80
2019-03-08T13:31:33.817Z,51.69
2019-03-08T13:34:02.788Z,52.44
2019-03-08T13:36:31.519Z,49.33
2019-03-08T13:39:00.189Z,51.03
2019-03-08T13:41:28.923Z,49.90
2019-03-08T13:43:57.567Z,46.96
2019-03-08T13:46:26.388Z,46.71
2019-03-08T13:48:55.132Z,47.59
2019-03-08T13:51:23.900Z,48.20
2019-03-08T13:53:52.888Z,47.55
2019-03-08T13:56:21.787Z,47.13
2019-03-08T13:58:50.510Z,48.63
2019-03-08T14:01:19.196Z,49.62
2019-03-08T14:03:47.934Z,50.67
2019-03-08T14:06:17.368Z,52.50
2019-03-08T14:08:46.407Z,52.63
2019-03-08T14:11:15.178Z,51.47
2019-03-08T14:13:44.818Z,51.40
2019-03-08T14:16:13.496Z,51.27
2019-03-08T14:18:42.307Z,50.98
2019-03-08T14:21:11.056Z,51.56
2019-03-08T14:23:39.907Z,50.72
2019-03-08T14:26:08.682Z,52.01
2019-03-08T14:28:37.399Z,52.18
2019-03-08T14:34:05.371Z,52.55
2019-03-08T14:36:34.011Z,53.72
2019-03-08T14:39:04.250Z,51.47
2019-03-08T14:41:34.869Z,50.23
2019-03-08T14:44:11.246Z,51.12
2019-03-08T14:46:41.511Z,51.76
2019-03-08T14:49:11.990Z,53.07
2019-03-08T14:51:40.895Z,50.33
2019-03-08T14:54:10.079Z,50.96
2019-03-08T14:56:40.117Z,50.22
2019-03-08T14:59:11.138Z,50.60
2019-03-08T15:01:40.263Z,51.21
2019-03-08T15:04:09.801Z,51.13
2019-03-08T15:06:38.613Z,51.69
2019-03-08T15:09:10.791Z,53.08
2019-03-08T15:11:39.660Z,54.99
2019-03-08T15:14:08.408Z,54.18
2019-03-08T15:16:39.231Z,53.00
2019-03-08T15:19:07.643Z,54.08
2019-03-08T15:21:37.035Z,53.64
2019-03-08T15:24:06.938Z,53.75
2019-03-08T15:26:35.687Z,54.59
2019-03-08T15:29:05.483Z,56.23
2019-03-08T15:31:34.301Z,55.65
2019-03-08T15:34:03.078Z,56.88
2019-03-08T15:36:31.795Z,58.04
2019-03-08T15:39:00.505Z,57.83
2019-03-08T15:41:29.332Z,58.31
2019-03-08T15:43:58.019Z,59.60
2019-03-08T15:46:27.104Z,58.62
2019-03-08T15:48:56.952Z,59.65
2019-03-08T15:51:26.949Z,59.67
2019-03-08T15:53:55.826Z,59.76
2019-03-08T15:56:24.727Z,59.27
2019-03-08T15:58:53.413Z,59.61
2019-03-08T16:01:22.987Z,59.96
2019-03-08T16:03:55.310Z,60.58
2019-03-08T16:06:24.598Z,60.61
2019-03-08T16:08:54.405Z,60.60
2019-03-08T16:11:27.023Z,60.64
2019-03-08T16:14:08.523Z,60.35
2019-03-08T16:16:30.777Z,61.04
2019-03-08T16:18:59.578Z,61.87
2019-03-08T16:21:30.175Z,61.76
2019-03-08T16:24:05.728Z,61.51
2019-03-08T16:26:34.609Z,61.78
2019-03-08T16:29:03.321Z,62.53
2019-03-08T16:31:36.513Z,62.72
2019-03-08T16:34:10.272Z,62.99
2019-03-08T16:36:41.615Z,62.81
2019-03-08T16:39:12.695Z,63.57
2019-03-08T16:41:45.959Z,62.89
2019-03-08T16:44:25.281Z,63.50
2019-03-08T16:47:13.762Z,63.87
2019-03-08T16:49:51.502Z,64.33
2019-03-08T16:52:23.214Z,64.82
2019-03-08T16:54:55.807Z,64.92
2019-03-08T16:57:44.283Z,64.37
2019-03-08T17:00:15.240Z,64.92
2019-03-08T17:02:45.702Z,65.11
2019-03-08T17:05:31.666Z,65.52
2019-03-08T17:08:18.034Z,65.09
2019-03-08T17:10:48.458Z,64.32
2019-03-08T17:13:25.186Z,63.92
2019-03-08T17:16:12.382Z,63.91
2019-03-08T17:18:43.338Z,64.57
2019-03-08T17:21:30.427Z,64.65
2019-03-08T17:24:17.846Z,63.81
2019-03-08T17:26:48.723Z,64.83
2019-03-08T17:29:27.931Z,64.59
2019-03-08T17:32:10.593Z,64.97
2019-03-08T17:34:45.677Z,64.54
2019-03-08T17:37:32.478Z,64.41
2019-03-08T17:40:09.066Z,64.35
2019-03-08T17:42:48.891Z,64.73
2019-03-08T17:45:22.491Z,64.46
2019-03-08T17:47:53.109Z,64.70
2019-03-08T17:50:28.503Z,64.36
2019-03-08T17:53:17.994Z,64.84
2019-03-08T17:56:06.728Z,64.92
2019-03-08T17:58:42.933Z,65.00
2019-03-08T18:01:22.467Z,64.98
2019-03-08T18:03:55.895Z,64.95
2019-03-08T18:06:35.072Z,64.73
2019-03-08T18:09:12.705Z,64.08
2019-03-08T18:11:55.192Z,65.07
2019-03-08T18:14:25.791Z,65.06
2019-03-08T18:17:05.199Z,64.77
2019-03-08T18:19:43.750Z,65.30
2019-03-08T18:22:15.023Z,66.37
2019-03-08T18:24:57.203Z,65.46
2019-03-08T18:27:37.125Z,65.53
2019-03-08T18:30:19.958Z,65.78
2019-03-08T18:32:53.369Z,66.24
2019-03-08T18:35:24.969Z,66.13
2019-03-08T18:37:55.952Z,66.48
2019-03-08T18:40:43.135Z,66.54
2019-03-08T18:43:23.631Z,67.04
2019-03-08T18:45:54.281Z,67.25
2019-03-08T18:48:31.333Z,67.70
2019-03-08T18:51:14.237Z,68.41
2019-03-08T18:53:50.807Z,68.55
2019-03-08T18:56:21.837Z,68.52
2019-03-08T18:58:58.880Z,69.11
2019-03-08T19:01:46.179Z,69.23
2019-03-08T19:04:17.321Z,68.79
2019-03-08T19:06:54.279Z,68.70
2019-03-08T19:09:31.490Z,69.33
2019-03-08T19:12:14.185Z,69.01
2019-03-08T19:14:48.679Z,69.57
2019-03-08T19:17:35.649Z,68.83
2019-03-08T19:20:25.590Z,68.87
2019-03-08T19:22:59.064Z,69.07
2019-03-08T19:25:34.186Z,69.04
2019-03-08T19:28:14.383Z,69.04
2019-03-08T19:31:00.770Z,70.01
2019-03-08T19:33:35.694Z,69.75
2019-03-08T19:36:09.989Z,69.05
2019-03-08T19:38:41.009Z,70.33
2019-03-08T19:41:14.801Z,70.25
2019-03-08T19:43:51.537Z,70.24
2019-03-08T19:46:38.927Z,70.56
2019-03-08T19:49:19.744Z,70.75
2019-03-08T19:52:11.374Z,70.38
2019-03-08T19:54:42.055Z,71.10
2019-03-08T20:00:27.205Z,71.31
2019-03-08T20:03:09.458Z,72.32
2019-03-08T20:05:55.246Z,72.45
2019-03-08T20:08:29.439Z,72.05
2019-03-08T20:11:00.572Z,72.38
2019-03-08T20:13:31.743Z,72.88
2019-03-08T20:16:14.865Z,73.32
2019-03-08T20:18:49.239Z,73.59
2019-03-08T20:21:32.550Z,74.15
2019-03-08T20:24:06.829Z,74.37
2019-03-08T20:26:47.523Z,74.92
2019-03-08T20:29:35.161Z,75.04
2019-03-08T20:32:25.851Z,75.33
2019-03-08T20:35:05.266Z,75.12
2019-03-08T20:37:39.324Z,75.48
2019-03-08T20:40:10.188Z,75.90
2019-03-08T20:42:41.114Z,76.42
2019-03-08T20:45:25.583Z,77.07
2019-03-08T20:47:54.674Z,76.97
2019-03-08T20:50:24.355Z,77.14
2019-03-08T20:52:54.100Z,77.13
2019-03-08T20:55:23.228Z,77.79
2019-03-08T20:57:52.187Z,77.83
2019-03-08T21:00:21.817Z,77.83
2019-03-08T21:02:50.932Z,78.15
2019-03-08T21:05:20.306Z,78.28
2019-03-08T21:07:49.803Z,79.04
2019-03-08T21:10:19.139Z,78.94
2019-03-08T21:12:48.197Z,78.75
2019-03-08T21:15:25.057Z,78.89
2019-03-08T21:17:50.232Z,79.16
2019-03-08T21:20:19.565Z,79.14
2019-03-08T21:22:48.567Z,79.10
2019-03-08T21:25:17.479Z,78.92
2019-03-08T21:27:46.344Z,78.96
2019-03-08T21:30:19.054Z,79.01
2019-03-08T21:32:48.044Z,78.83
2019-03-08T21:35:17.441Z,78.33
2019-03-08T21:37:46.442Z,78.25
2019-03-08T21:40:15.656Z,78.32
2019-03-08T21:42:44.662Z,77.81
2019-03-08T21:45:16.741Z,77.63
2019-03-08T21:47:45.433Z,77.30
2019-03-08T21:50:18.031Z,76.68
2019-03-08T21:52:46.701Z,77.13
2019-03-08T21:55:15.835Z,75.89
2019-03-08T21:57:44.688Z,76.61
2019-03-08T22:00:22.768Z,76.09
2019-03-08T22:02:51.736Z,76.72
2019-03-08T22:05:28.082Z,76.29
2019-03-08T22:07:56.835Z,76.29
2019-03-08T22:10:36.337Z,76.50
2019-03-08T22:13:06.689Z,76.53
2019-03-08T22:15:38.854Z,76.63
2019-03-08T22:18:08.006Z,76.09
2019-03-08T22:20:37.162Z,76.64
2019-03-08T22:23:10.833Z,76.40
2019-03-08T22:25:42.144Z,77.23
2019-03-08T22:28:14.871Z,77.93
2019-03-08T22:30:45.783Z,78.81
2019-03-08T22:33:15.982Z,78.81
2019-03-08T22:35:44.820Z,79.90
2019-03-08T22:38:13.550Z,81.00
2019-03-08T22:40:42.369Z,81.28
2019-03-08T22:43:11.198Z,82.04
2019-03-08T22:45:39.907Z,82.68
2019-03-08T22:48:08.675Z,83.21
2019-03-08T22:50:37.527Z,84.43
2019-03-08T22:53:06.206Z,84.86
2019-03-08T22:55:34.898Z,85.10
2019-03-08T22:58:03.648Z,84.83
2019-03-08T23:00:55.523Z,84.25
2019-03-08T23:03:25.823Z,85.12
2019-03-08T23:05:54.579Z,85.35
2019-03-08T23:08:23.242Z,85.21
2019-03-08T23:10:51.955Z,85.99
2019-03-08T23:13:20.924Z,86.66
2019-03-08T23:15:49.666Z,86.89
2019-03-08T23:18:18.302Z,86.62
2019-03-08T23:20:47.302Z,86.93
2019-03-08T23:23:16.318Z,87.82
2019-03-08T23:25:45.031Z,88.25
2019-03-08T23:28:31.634Z,88.63
2019-03-08T23:31:18.011Z,89.05
2019-03-08T23:33:46.872Z,88.95
2019-03-08T23:36:15.664Z,89.32
2019-03-08T23:38:44.578Z,89.56
2019-03-08T23:41:13.327Z,90.16
2019-03-08T23:43:42.135Z,89.62
2019-03-08T23:46:10.919Z,89.16
2019-03-08T23:48:39.620Z,89.01
2019-03-08T23:51:08.588Z,89.55
2019-03-08T23:53:37.289Z,89.66
2019-03-08T23:56:06.321Z,89.97
2019-03-08T23:58:35.034Z,89.89
